עמוד ראשי
METAR-TAF:

METAR-TAF

שדות תעופה :

Tuktoyaktuk, הטריטוריות הצפון-מערביות, קנדה

קו רוחב: 69-27N, קו אורך: 133-01W, גובה: 5מטר

תצפית מזג אוויר נוכחית

הדו"ח נערך לפני 1 שעות ו 19דקות, בשעה 20:00 UTC
רוח 6קשר מכיוון צפון/צפון-מערב
טמפרטורת 3 צלסיוס
לחות 87%
לחץ 1014 hPa
ראות: 24.1קילומטר
מעט עננים בגובה 100רגל
עננים בינוניים בגובה 25000רגל

METAR: CYUB 172000Z 34006KT 15SM FEW001 BKN250 03/01 A2993 RMK ST1CI5 ST TR SLP137

זמן: 15:19 (21:19 UTC)

תחזית

הדו"ח נערך לפני 2 שעות ו 39דקות, בשעה 18:40 UTC
תחזית בתוקף מ 17 ב 19 UTC עד 18 ב 05 UTC
רוח 5קשר מכיוון צפון
ראות: 10קילומטר
מעט עננים בגובה 400רגל
מעט עננים בגובה 6000רגל
עננים פזורים בגובה 25000רגל
יעשה מ
17 ב 19 UTC עד 17 ב 21 UTC
רוח 8קשר מכיוון מערב/צפון-מערב
מ 18 ב 0200UTC
רוח 12קשר מכיוון מזרח/צפון-מזרח
ראות: 10קילומטר
עננים פזורים בגובה 15000רגל

TAF: CYUB 171840Z 1719/1805 35005KT P6SM FEW004 FEW060 SCT250 BECMG 1719/1721 30008KT FM180200 07012KT P6SM SCT150 RMK NXT FCST BY 180100Z

תצפיות ותחזיות מזג אוויר לגבי יותר מ- 4,000 שדות תעופה ברחבי העולם. דוחות METAR ו- TAF.

התחנות הזמינות מסומנות בנקודות צהובות ואדומות על גבי המפה.

העבר את העכבר לנקודה הצבעונית על מנת לראות את שם התחנה.

לאחר מכן, לחץ כדי לראות את תוכן ואת תחזיות מזג האוויר.

כדי לשנות את המפה: לחץ על הכפתורים הירוקים עם הפלוס השחור כדי להתקרב; על הכפתור הירוק עם המקף כדי להתרחק; או בחיצים הירוקים למפות סמוכות.


METAR-TAF: